Time;durP1;ratioP1;P1;durP2;ratioP2;P2;SDS_P1;SDS_P2;PMS_P1;PMS_P2;Temp;Humidity;BMP_temperature;BMP_pressure;BME280_temperature;BME280_humidity;BME280_pressure;Samples;Min_cycle;Max_cycle;Signal;HPM_P1;HPM_P2
2020/12/14 00:02:17;;;;;;;38.13;21.20;;;1.80;92.30;;;;;;5087744;28;20204;-83
2020/12/14 00:04:47;;;;;;;38.67;18.63;;;1.90;92.30;;;;;;5094944;28;20438;-83
2020/12/14 00:07:14;;;;;;;40.70;19.33;;;1.80;92.30;;;;;;5105961;28;20200;-82
2020/12/14 00:09:43;;;;;;;35.20;19.17;;;1.90;92.30;;;;;;5095971;28;20207;-81
2020/12/14 00:12:11;;;;;;;36.50;18.43;;;1.80;92.20;;;;;;5104460;28;20212;-82
2020/12/14 00:14:39;;;;;;;41.20;21.13;;;1.80;92.20;;;;;;5097451;28;20247;-82
2020/12/14 00:17:06;;;;;;;40.77;20.90;;;1.80;92.20;;;;;;5091039;28;20188;-80
2020/12/14 00:19:34;;;;;;;34.60;17.03;;;1.80;92.20;;;;;;5106116;28;20266;-82
2020/12/14 00:22:03;;;;;;;32.77;16.60;;;1.80;92.20;;;;;;5096271;28;20215;-81
2020/12/14 00:24:30;;;;;;;29.03;15.80;;;1.80;92.00;;;;;;5099369;28;20219;-82
2020/12/14 00:26:57;;;;;;;32.20;16.87;;;1.80;91.80;;;;;;5095414;28;20290;-81
2020/12/14 00:29:25;;;;;;;29.53;15.97;;;1.80;91.80;;;;;;5088965;28;20208;-82
2020/12/14 00:31:53;;;;;;;29.87;14.97;;;1.80;91.70;;;;;;5075479;28;20197;-84
2020/12/14 00:34:23;;;;;;;31.03;17.53;;;1.80;91.80;;;;;;5090352;28;20196;-83
2020/12/14 00:37:04;;;;;;;31.37;16.33;;;1.80;91.80;;;;;;5089268;28;20331;-83
2020/12/14 00:39:31;;;;;;;27.77;15.00;;;1.80;91.80;;;;;;5105009;28;20216;-82
2020/12/14 00:42:00;;;;;;;28.27;14.63;;;1.80;91.80;;;;;;5102166;28;20185;-83
2020/12/14 00:44:27;;;;;;;31.60;14.70;;;1.80;91.90;;;;;;5101335;28;20296;-82
2020/12/14 00:46:55;;;;;;;30.57;15.40;;;1.80;91.90;;;;;;5104194;28;20177;-83
2020/12/14 00:49:23;;;;;;;28.40;14.77;;;1.80;91.90;;;;;;5092942;28;20176;-82
2020/12/14 00:51:51;;;;;;;29.27;15.03;;;1.80;91.90;;;;;;5089715;28;20209;-82
2020/12/14 00:54:20;;;;;;;27.63;14.83;;;1.80;91.90;;;;;;5105973;28;20210;-81
2020/12/14 00:56:47;;;;;;;27.50;15.13;;;1.80;92.00;;;;;;5082526;28;20205;-83
2020/12/14 00:59:15;;;;;;;24.17;15.27;;;1.80;91.90;;;;;;5077592;28;20231;-82
2020/12/14 01:01:42;;;;;;;30.93;16.13;;;1.80;91.90;;;;;;5062318;28;20206;-82
2020/12/14 01:04:10;;;;;;;28.87;15.83;;;2.00;91.90;;;;;;5084916;28;20197;-82
2020/12/14 01:06:38;;;;;;;26.67;14.87;;;1.70;91.90;;;;;;5102989;28;20276;-81
2020/12/14 01:09:07;;;;;;;26.37;13.10;;;1.80;91.90;;;;;;5097199;28;20197;-82
2020/12/14 01:11:35;;;;;;;25.13;13.10;;;1.80;91.90;;;;;;5079057;28;20224;-81
2020/12/14 01:14:03;;;;;;;25.60;13.90;;;1.80;91.80;;;;;;5080058;28;20207;-81
2020/12/14 01:16:30;;;;;;;23.30;12.70;;;1.70;91.70;;;;;;5080727;28;20473;-82
2020/12/14 01:18:58;;;;;;;21.70;13.27;;;1.70;91.70;;;;;;5064077;28;20539;-83
2020/12/14 01:21:27;;;;;;;22.00;12.90;;;1.70;91.80;;;;;;5077630;28;20197;-83
2020/12/14 01:23:54;;;;;;;21.97;13.17;;;1.70;91.80;;;;;;5073599;28;20292;-83
2020/12/14 01:26:21;;;;;;;21.80;11.63;;;1.80;91.70;;;;;;5066461;28;20231;-80
2020/12/14 01:28:50;;;;;;;23.30;13.00;;;1.70;91.70;;;;;;5078240;28;20197;-82
2020/12/14 01:31:18;;;;;;;21.93;12.90;;;1.70;91.60;;;;;;5068247;28;20211;-82
2020/12/14 01:33:46;;;;;;;25.27;13.47;;;1.70;91.70;;;;;;5078077;28;20224;-82
2020/12/14 01:36:13;;;;;;;26.10;14.03;;;1.70;91.70;;;;;;5072953;28;20201;-83
2020/12/14 01:38:40;;;;;;;25.23;14.07;;;1.70;91.70;;;;;;5073857;28;20229;-83
2020/12/14 01:41:08;;;;;;;25.47;14.00;;;1.70;91.70;;;;;;5077381;28;20196;-83
2020/12/14 01:43:37;;;;;;;28.47;14.13;;;1.70;91.80;;;;;;5094604;28;20358;-81
2020/12/14 01:46:05;;;;;;;25.43;13.33;;;1.70;91.80;;;;;;5095080;28;20396;-84
2020/12/14 01:48:33;;;;;;;25.67;13.57;;;1.80;91.80;;;;;;5102665;28;20177;-82
2020/12/14 01:51:01;;;;;;;24.30;14.00;;;1.70;91.80;;;;;;5088957;28;20185;-82
2020/12/14 01:53:30;;;;;;;25.83;13.33;;;1.70;91.80;;;;;;5080725;28;20193;-82
2020/12/14 01:56:02;;;;;;;23.47;13.53;;;1.70;91.70;;;;;;5081681;28;20692;-82
2020/12/14 01:58:31;;;;;;;27.17;12.83;;;1.70;91.70;;;;;;5089994;28;20260;-80
2020/12/14 02:00:59;;;;;;;23.30;13.13;;;1.60;91.70;;;;;;5101201;28;20177;-82
2020/12/14 02:03:28;;;;;;;23.33;13.30;;;1.70;91.70;;;;;;5096560;28;20198;-80
2020/12/14 02:05:56;;;;;;;23.90;12.90;;;1.70;91.70;;;;;;5092643;28;20197;-81
2020/12/14 02:08:24;;;;;;;22.60;13.03;;;1.70;91.50;;;;;;5095688;28;20748;-82
2020/12/14 02:10:51;;;;;;;26.27;13.40;;;1.60;91.40;;;;;;5098424;28;20212;-81
2020/12/14 02:13:19;;;;;;;24.80;12.97;;;1.80;91.50;;;;;;5088348;28;20560;-81
2020/12/14 02:15:46;;;;;;;24.30;12.40;;;1.80;91.30;;;;;;5106088;28;20216;-82
2020/12/14 02:18:14;;;;;;;21.67;12.10;;;1.80;91.40;;;;;;5089662;28;20225;-81
2020/12/14 02:20:42;;;;;;;25.60;13.57;;;1.70;91.30;;;;;;5095322;28;20200;-82
2020/12/14 02:23:10;;;;;;;26.30;13.73;;;1.70;91.30;;;;;;5082753;28;20204;-83
2020/12/14 02:25:38;;;;;;;24.53;13.17;;;1.70;91.40;;;;;;5075294;28;20200;-81
2020/12/14 02:28:06;;;;;;;22.00;12.73;;;1.70;91.50;;;;;;5084393;28;20984;-82
2020/12/14 02:30:33;;;;;;;22.47;13.20;;;1.80;91.60;;;;;;5073059;28;20307;-81
2020/12/14 02:33:01;;;;;;;28.57;14.20;;;1.80;91.60;;;;;;5071768;28;20252;-82
2020/12/14 02:35:28;;;;;;;23.57;12.77;;;1.80;91.50;;;;;;5080843;28;20685;-82
2020/12/14 02:37:56;;;;;;;24.00;12.83;;;1.70;91.50;;;;;;5094491;28;20469;-81
2020/12/14 02:40:23;;;;;;;22.70;12.60;;;1.70;91.50;;;;;;5079035;28;20208;-81
2020/12/14 02:42:52;;;;;;;18.70;10.70;;;1.70;91.40;;;;;;5076204;28;20286;-80
2020/12/14 02:45:19;;;;;;;17.10;10.47;;;1.70;91.40;;;;;;5066629;28;20177;-82
2020/12/14 02:47:47;;;;;;;20.17;11.30;;;1.70;91.20;;;;;;5083864;28;20211;-81
2020/12/14 02:50:15;;;;;;;20.73;12.23;;;1.70;91.20;;;;;;5070314;28;20612;-82
2020/12/14 02:52:42;;;;;;;21.53;11.80;;;1.70;91.40;;;;;;5069699;28;20212;-82
2020/12/14 02:55:10;;;;;;;20.87;11.53;;;1.60;91.50;;;;;;5074414;28;20197;-84
2020/12/14 02:57:38;;;;;;;21.50;11.97;;;1.60;91.50;;;;;;5071129;28;20205;-80
2020/12/14 03:00:07;;;;;;;23.23;12.30;;;1.70;91.60;;;;;;5070680;28;20220;-82
2020/12/14 03:02:34;;;;;;;21.50;11.93;;;1.70;91.60;;;;;;5077822;28;20962;-82
2020/12/14 03:05:02;;;;;;;16.70;10.30;;;1.60;91.60;;;;;;5071182;28;20205;-82
2020/12/14 03:07:29;;;;;;;16.93;10.43;;;1.70;91.60;;;;;;5058304;28;20496;-82
2020/12/14 03:09:56;;;;;;;16.27;10.40;;;1.70;91.60;;;;;;5087189;28;20197;-82
2020/12/14 03:12:24;;;;;;;18.90;10.40;;;1.70;91.60;;;;;;5097540;28;20414;-82
2020/12/14 03:14:52;;;;;;;12.87;8.60;;;1.70;91.50;;;;;;5099788;28;20180;-81
2020/12/14 03:17:21;;;;;;;15.57;9.53;;;1.70;91.50;;;;;;5084335;28;20317;-83
2020/12/14 03:19:50;;;;;;;17.03;9.43;;;1.70;91.40;;;;;;5063638;28;20270;-80
2020/12/14 03:22:18;;;;;;;13.60;9.47;;;1.70;91.40;;;;;;5089541;28;20371;-82
2020/12/14 03:24:45;;;;;;;16.50;9.07;;;1.70;91.50;;;;;;5089710;28;20206;-81
2020/12/14 03:27:13;;;;;;;14.83;9.07;;;1.70;91.40;;;;;;5075382;28;20205;-83
2020/12/14 03:29:40;;;;;;;15.40;9.80;;;1.70;91.50;;;;;;5078126;28;20193;-81
2020/12/14 03:32:08;;;;;;;15.57;9.30;;;1.80;91.50;;;;;;5068319;28;20444;-81
2020/12/14 03:34:36;;;;;;;15.23;9.00;;;1.70;91.50;;;;;;5074193;28;20205;-81
2020/12/14 03:37:06;;;;;;;16.27;9.20;;;1.70;91.40;;;;;;5080125;28;20254;-82
2020/12/14 03:39:33;;;;;;;16.00;9.90;;;1.70;91.40;;;;;;5064548;28;20303;-82
2020/12/14 03:42:01;;;;;;;19.57;10.70;;;1.70;91.50;;;;;;5078212;28;20197;-82
2020/12/14 03:44:29;;;;;;;15.77;9.73;;;1.80;91.50;;;;;;5075407;28;20193;-82
2020/12/14 03:46:56;;;;;;;15.30;9.00;;;1.70;91.50;;;;;;5071872;28;20585;-80
2020/12/14 03:49:24;;;;;;;16.47;9.87;;;1.70;91.50;;;;;;5075414;28;20201;-81
2020/12/14 03:51:52;;;;;;;14.93;8.93;;;1.70;91.50;;;;;;5074358;28;20220;-82
2020/12/14 03:54:21;;;;;;;17.03;8.93;;;1.70;91.60;;;;;;5068412;28;20291;-84
2020/12/14 03:56:49;;;;;;;13.30;8.30;;;1.70;91.40;;;;;;5066842;28;20526;-81
2020/12/14 03:59:17;;;;;;;14.17;9.10;;;1.70;91.30;;;;;;5064997;28;20229;-82
2020/12/14 04:01:45;;;;;;;12.93;8.73;;;1.70;91.30;;;;;;5059431;28;20201;-81
2020/12/14 04:04:13;;;;;;;13.73;8.60;;;1.70;91.30;;;;;;5073560;28;20232;-82
2020/12/14 04:06:40;;;;;;;13.83;8.57;;;1.70;91.20;;;;;;5066640;28;20213;-81
2020/12/14 04:09:08;;;;;;;13.83;8.53;;;1.70;91.30;;;;;;5072394;28;20212;-80
2020/12/14 04:11:36;;;;;;;12.77;8.43;;;1.80;91.30;;;;;;5073641;28;20637;-82
2020/12/14 04:14:04;;;;;;;11.57;7.97;;;1.80;91.20;;;;;;5065755;28;20206;-81
2020/12/14 04:16:32;;;;;;;13.90;8.57;;;1.80;91.20;;;;;;5075207;28;20386;-83
2020/12/14 04:18:59;;;;;;;12.13;7.27;;;1.80;91.10;;;;;;5077249;28;20221;-80
2020/12/14 04:21:27;;;;;;;10.30;7.03;;;1.80;90.80;;;;;;5060344;28;20206;-84
2020/12/14 04:23:55;;;;;;;11.93;7.37;;;1.80;90.70;;;;;;5074766;28;20292;-82
2020/12/14 04:26:23;;;;;;;13.20;8.27;;;1.90;90.70;;;;;;5068760;28;20267;-82
2020/12/14 04:28:50;;;;;;;14.07;8.73;;;1.90;90.80;;;;;;5065770;28;20240;-82
2020/12/14 04:31:18;;;;;;;12.93;8.93;;;1.90;90.80;;;;;;5075343;28;20281;-82
2020/12/14 04:33:46;;;;;;;14.60;8.97;;;1.90;90.90;;;;;;5070976;28;20208;-80
2020/12/14 04:36:13;;;;;;;13.93;9.00;;;1.90;90.90;;;;;;5098445;28;20185;-81
2020/12/14 04:38:41;;;;;;;16.13;9.70;;;1.80;90.90;;;;;;5097941;28;20210;-82
2020/12/14 04:41:09;;;;;;;13.97;8.97;;;1.90;91.00;;;;;;5092277;28;20208;-80
2020/12/14 04:43:37;;;;;;;13.37;8.30;;;2.00;90.90;;;;;;5089875;28;20189;-81
2020/12/14 04:46:07;;;;;;;14.80;8.83;;;1.90;90.90;;;;;;5081848;28;20208;-80
2020/12/14 04:48:35;;;;;;;17.03;9.83;;;1.90;90.90;;;;;;5091465;28;20205;-80
2020/12/14 04:51:02;;;;;;;16.47;10.17;;;1.90;91.00;;;;;;5073461;28;20852;-83
2020/12/14 04:53:30;;;;;;;15.27;9.20;;;2.00;91.00;;;;;;5070223;28;20631;-84
2020/12/14 04:55:59;;;;;;;16.20;9.43;;;1.90;90.90;;;;;;5069742;28;20247;-81
2020/12/14 04:58:26;;;;;;;15.27;9.23;;;1.90;90.90;;;;;;5078261;28;20651;-81
2020/12/14 05:00:54;;;;;;;14.27;9.20;;;1.90;91.00;;;;;;5081138;28;20209;-82
2020/12/14 05:03:22;;;;;;;15.17;9.53;;;1.90;91.10;;;;;;5084174;28;20201;-82
2020/12/14 05:05:55;;;;;;;17.20;10.37;;;1.90;91.10;;;;;;5074952;28;20209;-82
2020/12/14 05:08:26;;;;;;;16.27;9.83;;;1.90;91.10;;;;;;5074349;28;20197;-81
2020/12/14 05:10:54;;;;;;;19.57;10.30;;;1.90;91.30;;;;;;5075909;28;20237;-83
2020/12/14 05:13:26;;;;;;;15.77;9.63;;;1.90;91.20;;;;;;5091518;28;20185;-83
2020/12/14 05:15:56;;;;;;;17.37;9.93;;;1.80;91.30;;;;;;5093036;28;20189;-81
2020/12/14 05:18:24;;;;;;;18.57;9.93;;;1.80;91.40;;;;;;5095042;28;20240;-82
2020/12/14 05:20:59;;;;;;;18.03;10.00;;;1.80;91.50;;;;;;5089820;28;20296;-83
2020/12/14 05:23:29;;;;;;;18.73;10.60;;;1.80;91.40;;;;;;5099387;28;20208;-82
2020/12/14 05:26:05;;;;;;;16.30;10.73;;;1.80;91.40;;;;;;5098255;28;20257;-81
2020/12/14 05:28:33;;;;;;;17.37;10.10;;;1.80;91.30;;;;;;5089750;28;20185;-82
2020/12/14 05:31:01;;;;;;;20.70;10.27;;;1.80;91.30;;;;;;5096616;28;20203;-82
2020/12/14 05:33:30;;;;;;;17.87;10.67;;;1.80;91.40;;;;;;5095561;28;20185;-84
2020/12/14 05:35:58;;;;;;;16.73;9.87;;;1.80;91.40;;;;;;5098127;28;20277;-82
2020/12/14 05:38:27;;;;;;;21.17;10.93;;;1.70;91.40;;;;;;5099609;28;20265;-82
2020/12/14 05:40:56;;;;;;;18.43;10.97;;;1.70;91.40;;;;;;5082364;28;20551;-82
2020/12/14 05:43:25;;;;;;;17.83;10.03;;;1.70;91.50;;;;;;5074639;28;20206;-81
2020/12/14 05:45:54;;;;;;;18.30;11.07;;;1.70;91.50;;;;;;5096456;28;20471;-83
2020/12/14 05:48:33;;;;;;;18.17;10.63;;;1.70;91.50;;;;;;5095255;28;20583;-81
2020/12/14 05:51:03;;;;;;;17.27;10.30;;;1.80;91.60;;;;;;5094722;28;20779;-80
2020/12/14 05:53:35;;;;;;;15.17;9.33;;;1.80;91.50;;;;;;5081568;28;20356;-83
2020/12/14 05:56:04;;;;;;;16.87;10.00;;;1.80;91.60;;;;;;5068850;28;20528;-82
2020/12/14 05:58:33;;;;;;;15.77;10.03;;;1.80;91.50;;;;;;5082424;28;20500;-82
2020/12/14 06:01:01;;;;;;;18.77;10.63;;;1.80;91.40;;;;;;5069752;28;20193;-80
2020/12/14 06:03:32;;;;;;;15.67;10.60;;;1.80;91.40;;;;;;5071280;28;20646;-82
2020/12/14 06:06:01;;;;;;;20.40;10.60;;;1.90;91.50;;;;;;5083909;28;20309;-82
2020/12/14 06:09:02;;;;;;;19.13;10.47;;;1.80;91.40;;;;;;5099839;28;20381;-81
2020/12/14 06:11:35;;;;;;;21.47;10.90;;;1.80;91.40;;;;;;5095574;28;20218;-83
2020/12/14 06:14:03;;;;;;;16.83;10.00;;;1.80;91.40;;;;;;5063057;28;20679;-80
2020/12/14 06:16:34;;;;;;;17.63;10.87;;;1.80;91.50;;;;;;5080422;28;20369;-81
2020/12/14 06:19:04;;;;;;;20.43;11.30;;;1.80;91.60;;;;;;5065138;28;20802;-83
2020/12/14 06:21:40;;;;;;;19.20;12.00;;;1.80;91.60;;;;;;5063576;28;20835;-82
2020/12/14 06:24:17;;;;;;;15.93;10.37;;;1.80;91.60;;;;;;5065841;28;20313;-82
2020/12/14 06:26:46;;;;;;;16.87;10.40;;;1.80;91.60;;;;;;5061682;28;20200;-82
2020/12/14 06:29:30;;;;;;;21.30;12.03;;;1.80;91.60;;;;;;5072188;28;20267;-82
2020/12/14 06:31:59;;;;;;;19.00;10.63;;;1.80;91.60;;;;;;5070196;28;20221;-83
2020/12/14 06:34:41;;;;;;;20.47;10.87;;;1.90;91.60;;;;;;5068450;28;20209;-80
2020/12/14 06:37:10;;;;;;;23.43;11.17;;;1.90;91.60;;;;;;5074294;28;20205;-80
2020/12/14 06:39:40;;;;;;;20.13;11.50;;;1.90;91.60;;;;;;5071792;28;20251;-83
2020/12/14 06:42:23;;;;;;;20.33;11.53;;;1.90;91.60;;;;;;5066196;28;20205;-82
2020/12/14 06:45:15;;;;;;;19.93;10.93;;;1.90;91.60;;;;;;5057337;28;20242;-81
2020/12/14 06:47:45;;;;;;;18.53;11.10;;;1.90;91.60;;;;;;5072169;28;20640;-82
2020/12/14 06:50:37;;;;;;;19.33;11.13;;;1.90;91.50;;;;;;5065023;28;20205;-81
2020/12/14 06:53:42;;;;;;;22.07;12.00;;;1.90;91.50;;;;;;5054139;28;20515;-83
2020/12/14 06:56:10;;;;;;;19.40;11.00;;;1.90;91.60;;;;;;5082985;28;20809;-81
2020/12/14 06:58:41;;;;;;;19.77;11.33;;;2.00;91.50;;;;;;5093651;28;20744;-82
2020/12/14 07:01:34;;;;;;;17.23;10.53;;;2.00;91.60;;;;;;5078428;28;20321;-84
2020/12/14 07:04:16;;;;;;;19.63;10.53;;;2.00;91.50;;;;;;5073707;28;20232;-83
2020/12/14 07:06:46;;;;;;;21.10;11.23;;;1.90;91.40;;;;;;5082942;28;20211;-84
2020/12/14 07:09:26;;;;;;;19.10;11.23;;;1.90;91.50;;;;;;5073742;28;20591;-83
2020/12/14 07:11:54;;;;;;;18.17;10.10;;;1.90;91.50;;;;;;5088765;28;20203;-81
2020/12/14 07:14:30;;;;;;;20.70;10.87;;;1.80;91.60;;;;;;5085127;28;20524;-84
2020/12/14 07:17:17;;;;;;;17.80;10.10;;;1.90;91.60;;;;;;5084461;28;20201;-82
2020/12/14 07:19:47;;;;;;;16.00;11.10;;;2.00;91.60;;;;;;5093359;28;20204;-83
2020/12/14 07:22:19;;;;;;;15.77;10.87;;;1.90;91.60;;;;;;5090189;28;20334;-81
2020/12/14 07:24:52;;;;;;;18.57;10.97;;;2.00;91.60;;;;;;5092577;28;20224;-83
2020/12/14 07:27:19;;;;;;;13.70;9.97;;;2.00;91.60;;;;;;5088153;28;20193;-81
2020/12/14 07:29:47;;;;;;;13.50;10.00;;;2.00;91.50;;;;;;5081134;28;20196;-82
2020/12/14 07:32:16;;;;;;;13.07;9.43;;;1.80;91.10;;;;;;5090743;28;20320;-82
2020/12/14 07:34:52;;;;;;;16.50;9.97;;;2.00;90.80;;;;;;5094737;28;20201;-82
2020/12/14 07:37:23;;;;;;;14.13;9.23;;;2.10;90.70;;;;;;5089160;28;20227;-81
2020/12/14 07:39:53;;;;;;;16.83;9.93;;;2.10;90.60;;;;;;5070784;28;20226;-81
2020/12/14 07:42:23;;;;;;;15.87;9.43;;;2.10;90.60;;;;;;5077268;28;20736;-81
2020/12/14 07:44:51;;;;;;;13.10;8.87;;;2.40;90.70;;;;;;5073586;28;20202;-82
2020/12/14 07:47:21;;;;;;;14.87;10.07;;;2.20;90.60;;;;;;5060899;28;20209;-81
2020/12/14 07:50:05;;;;;;;13.53;8.70;;;2.20;90.50;;;;;;5058478;28;20212;-81
2020/12/14 07:52:35;;;;;;;14.90;9.60;;;2.20;90.50;;;;;;5063670;28;20276;-82
2020/12/14 07:55:05;;;;;;;13.13;9.23;;;2.20;90.40;;;;;;5077348;28;20204;-83
2020/12/14 07:57:36;;;;;;;14.57;9.97;;;2.20;90.40;;;;;;5082541;28;20394;-82
2020/12/14 08:00:08;;;;;;;15.37;10.60;;;2.40;90.50;;;;;;5069949;28;20316;-85
2020/12/14 08:02:35;;;;;;;17.43;10.63;;;2.20;90.50;;;;;;5077414;28;20250;-80
2020/12/14 08:05:05;;;;;;;14.80;9.97;;;2.20;90.60;;;;;;5060299;28;20260;-83
2020/12/14 08:07:40;;;;;;;16.40;10.83;;;2.30;90.60;;;;;;5080814;28;21241;-83
2020/12/14 08:10:09;;;;;;;16.43;10.50;;;2.30;90.60;;;;;;5063882;28;20231;-83
2020/12/14 08:12:38;;;;;;;14.73;10.57;;;2.30;90.60;;;;;;5064298;28;21760;-82
2020/12/14 08:15:10;;;;;;;15.93;10.03;;;2.30;90.60;;;;;;5081177;28;20224;-83
2020/12/14 08:17:40;;;;;;;15.60;11.60;;;2.30;90.60;;;;;;5073462;28;20266;-82
2020/12/14 08:20:24;;;;;;;16.97;10.73;;;2.40;90.70;;;;;;5067422;28;20596;-84
2020/12/14 08:23:04;;;;;;;16.97;10.70;;;2.50;90.60;;;;;;5071797;28;20270;-84
2020/12/14 08:25:34;;;;;;;19.23;10.43;;;2.40;90.50;;;;;;5076357;28;20666;-83
2020/12/14 08:28:05;;;;;;;21.87;12.20;;;2.40;90.50;;;;;;5069658;28;20208;-83
2020/12/14 08:30:33;;;;;;;17.27;11.27;;;2.50;90.60;;;;;;5067979;28;20208;-81
2020/12/14 08:33:11;;;;;;;19.20;11.63;;;2.40;90.60;;;;;;5067406;28;20240;-83
2020/12/14 08:35:40;;;;;;;19.47;11.30;;;2.50;90.70;;;;;;5064202;28;20204;-83
2020/12/14 08:38:11;;;;;;;20.80;10.77;;;2.60;90.60;;;;;;5089074;27;20221;-82
2020/12/14 08:40:40;;;;;;;19.40;11.63;;;2.50;90.60;;;;;;5052271;28;20568;-82
2020/12/14 08:43:09;;;;;;;20.73;11.63;;;2.70;90.70;;;;;;5058905;28;20214;-83
2020/12/14 08:45:39;;;;;;;18.57;11.23;;;2.60;90.80;;;;;;5061382;28;20197;-82
2020/12/14 08:48:10;;;;;;;17.60;11.57;;;2.60;90.60;;;;;;5065298;28;20507;-82
2020/12/14 08:50:38;;;;;;;20.53;12.07;;;2.50;90.60;;;;;;5061101;28;20545;-83
2020/12/14 08:53:09;;;;;;;16.03;10.17;;;2.60;90.70;;;;;;5066193;28;20205;-81
2020/12/14 08:55:40;;;;;;;17.60;10.60;;;2.60;90.60;;;;;;5062168;28;20197;-82
2020/12/14 08:58:09;;;;;;;17.10;10.87;;;2.50;90.50;;;;;;5072739;28;20208;-82
2020/12/14 09:00:37;;;;;;;18.43;11.47;;;2.50;90.60;;;;;;5079916;28;20644;-82
2020/12/14 09:03:06;;;;;;;20.03;11.47;;;2.50;90.70;;;;;;5085558;28;20472;-82
2020/12/14 09:05:35;;;;;;;18.40;11.00;;;2.50;90.70;;;;;;5079098;28;20212;-83
2020/12/14 09:08:14;;;;;;;17.73;11.00;;;2.60;90.80;;;;;;5077210;28;20533;-82
2020/12/14 09:10:42;;;;;;;19.03;11.50;;;2.60;90.60;;;;;;5060462;28;20199;-82
2020/12/14 09:13:11;;;;;;;19.03;11.67;;;2.70;90.70;;;;;;5067704;28;20622;-83
2020/12/14 09:15:53;;;;;;;19.50;10.60;;;2.70;90.40;;;;;;5073920;28;20385;-82
2020/12/14 09:18:22;;;;;;;22.20;12.20;;;2.70;90.30;;;;;;5067441;28;20276;-81
2020/12/14 09:20:52;;;;;;;21.10;12.10;;;2.70;90.40;;;;;;5062404;28;20232;-82
2020/12/14 09:23:22;;;;;;;21.67;12.67;;;2.60;90.50;;;;;;5065646;28;20205;-81
2020/12/14 09:25:50;;;;;;;21.30;13.00;;;2.60;90.50;;;;;;5067733;28;20547;-81
2020/12/14 09:28:18;;;;;;;22.10;12.80;;;2.60;90.40;;;;;;5077541;28;20338;-83
2020/12/14 09:30:48;;;;;;;17.80;11.73;;;2.60;90.60;;;;;;5069276;28;20288;-85
2020/12/14 09:33:19;;;;;;;19.77;11.27;;;2.70;90.60;;;;;;5064401;28;20984;-79
2020/12/14 09:35:47;;;;;;;17.47;10.60;;;2.80;90.70;;;;;;5062626;28;20440;-82
2020/12/14 09:38:16;;;;;;;19.27;10.70;;;2.80;90.60;;;;;;5076249;28;20201;-83
2020/12/14 09:40:52;;;;;;;18.33;11.50;;;2.80;90.30;;;;;;5077957;28;20363;-80
2020/12/14 09:43:32;;;;;;;16.47;10.90;;;2.80;90.30;;;;;;5075523;28;20434;-81
2020/12/14 09:48:50;;;;;;;15.33;9.67;;;2.80;90.20;;;;;;5077572;28;20324;-82
2020/12/14 09:51:22;;;;;;;14.70;9.53;;;2.80;90.10;;;;;;5075890;28;20206;-82
2020/12/14 09:53:59;;;;;;;14.43;9.10;;;2.70;90.00;;;;;;5071000;28;20500;-82
2020/12/14 09:56:42;;;;;;;14.67;9.87;;;2.60;90.00;;;;;;5068808;28;20198;-83
2020/12/14 09:59:16;;;;;;;15.47;10.37;;;2.70;90.10;;;;;;5081680;28;20219;-81
2020/12/14 10:01:56;;;;;;;19.50;10.50;;;2.70;90.20;;;;;;5087352;28;20721;-84
2020/12/14 10:04:30;;;;;;;15.63;10.07;;;2.70;90.20;;;;;;5103664;27;20815;-82
2020/12/14 10:07:00;;;;;;;15.50;10.23;;;2.80;90.20;;;;;;5057322;28;20201;-82
2020/12/14 10:09:37;;;;;;;17.23;10.53;;;2.70;90.20;;;;;;5067891;28;20204;-82
2020/12/14 10:12:06;;;;;;;18.17;10.77;;;2.80;90.30;;;;;;5064226;28;20201;-81
2020/12/14 10:14:34;;;;;;;19.77;11.13;;;2.80;90.30;;;;;;5083139;28;20201;-82
2020/12/14 10:17:02;;;;;;;19.57;11.70;;;2.90;90.40;;;;;;5078684;28;20261;-83
2020/12/14 10:19:33;;;;;;;17.73;10.13;;;2.90;90.30;;;;;;5068056;28;20215;-82
2020/12/14 10:22:02;;;;;;;20.20;11.37;;;2.90;90.20;;;;;;5070028;28;20200;-83
2020/12/14 10:24:30;;;;;;;17.97;10.97;;;2.90;90.20;;;;;;5079232;28;20513;-81
2020/12/14 10:26:59;;;;;;;16.67;11.47;;;2.70;90.30;;;;;;5084952;28;20210;-80
2020/12/14 10:29:27;;;;;;;18.90;11.97;;;2.90;90.20;;;;;;5089758;28;20190;-82
2020/12/14 10:31:55;;;;;;;16.40;11.27;;;3.00;90.30;;;;;;5084585;28;20184;-83
2020/12/14 10:34:24;;;;;;;19.10;11.13;;;3.00;90.00;;;;;;5078610;28;20210;-82
2020/12/14 10:36:56;;;;;;;19.60;11.90;;;3.00;90.00;;;;;;5066783;28;20549;-83
2020/12/14 10:39:40;;;;;;;19.17;11.07;;;3.00;90.00;;;;;;5069469;28;20205;-82
2020/12/14 10:42:12;;;;;;;19.37;11.17;;;3.00;90.00;;;;;;5067603;28;20317;-82
2020/12/14 10:44:42;;;;;;;25.53;13.03;;;3.00;89.80;;;;;;5071955;28;20381;-82
2020/12/14 10:47:10;;;;;;;19.10;11.83;;;3.00;89.70;;;;;;5068752;28;20280;-82
2020/12/14 10:49:41;;;;;;;21.57;12.90;;;2.90;89.90;;;;;;5078851;28;20481;-82
2020/12/14 10:55:07;;;;;;;20.03;11.47;;;3.00;90.00;;;;;;5079987;28;20220;-82
2020/12/14 10:57:43;;;;;;;17.53;11.67;;;3.00;90.10;;;;;;5086580;28;20205;-83
2020/12/14 11:00:24;;;;;;;18.93;12.97;;;2.90;90.10;;;;;;5077775;28;20236;-84
2020/12/14 11:02:56;;;;;;;18.40;12.17;;;3.00;90.00;;;;;;5082284;28;20924;-83
2020/12/14 11:05:25;;;;;;;19.80;12.17;;;3.00;90.10;;;;;;5081386;28;20786;-86
2020/12/14 11:07:55;;;;;;;19.07;11.80;;;2.90;90.10;;;;;;5081906;28;20198;-85
2020/12/14 11:10:23;;;;;;;18.03;12.00;;;3.00;90.10;;;;;;5085121;28;20214;-85
2020/12/14 11:12:58;;;;;;;17.20;11.53;;;3.10;90.10;;;;;;5087726;28;20205;-83
2020/12/14 11:15:35;;;;;;;18.17;11.30;;;3.10;90.00;;;;;;5103105;27;20198;-85
2020/12/14 11:18:04;;;;;;;19.13;12.40;;;3.10;90.00;;;;;;5094367;28;20218;-83
2020/12/14 11:20:44;;;;;;;20.43;12.70;;;3.10;90.00;;;;;;5094314;28;20230;-83
2020/12/14 11:23:28;;;;;;;17.80;12.80;;;3.10;90.00;;;;;;5096594;28;20230;-84
2020/12/14 11:26:15;;;;;;;14.90;10.80;;;3.10;90.00;;;;;;5316350;22;20233;-84
2020/12/14 11:29:03;;;;;;;19.30;11.70;;;3.10;90.00;;;;;;5138169;22;20212;-85
2020/12/14 11:31:59;;;;;;;19.07;11.93;;;3.10;89.90;;;;;;5055726;28;20208;-84
2020/12/14 11:34:35;;;;;;;23.47;13.63;;;2.90;89.90;;;;;;5062435;28;20351;-84
2020/12/14 11:37:04;;;;;;;19.87;12.30;;;3.00;90.00;;;;;;5051983;28;20535;-82
2020/12/14 11:39:34;;;;;;;22.53;13.50;;;3.00;90.00;;;;;;5026003;28;20457;-83
2020/12/14 11:42:04;;;;;;;20.77;12.50;;;3.00;90.00;;;;;;5056622;28;20220;-84
2020/12/14 11:44:49;;;;;;;22.53;13.80;;;3.00;90.10;;;;;;5039689;28;20187;-85
2020/12/14 11:50:24;;;;;;;22.93;13.50;;;3.00;90.20;;;;;;5045922;28;20207;-82
2020/12/14 11:53:09;;;;;;;24.30;13.07;;;3.00;90.10;;;;;;5053328;28;20291;-83
2020/12/14 11:55:37;;;;;;;22.13;13.67;;;3.00;90.10;;;;;;5051879;28;20214;-83
2020/12/14 11:58:05;;;;;;;25.57;14.43;;;3.00;90.20;;;;;;5056126;28;20182;-83
2020/12/14 12:00:33;;;;;;;23.20;14.53;;;3.00;90.10;;;;;;5048666;28;20227;-83
2020/12/14 12:03:04;;;;;;;21.07;12.57;;;3.00;90.20;;;;;;5052075;28;20187;-83
2020/12/14 12:05:32;;;;;;;25.40;15.13;;;3.00;90.20;;;;;;5053087;28;20209;-83
2020/12/14 12:08:02;;;;;;;22.13;14.43;;;3.10;90.30;;;;;;5038391;28;20229;-84
2020/12/14 12:10:34;;;;;;;23.73;14.20;;;3.00;90.30;;;;;;5057966;28;20255;-83
2020/12/14 12:13:02;;;;;;;23.80;14.60;;;3.00;90.30;;;;;;5039349;28;20206;-83
2020/12/14 12:15:30;;;;;;;26.10;15.10;;;3.00;90.40;;;;;;5053098;28;20249;-85
2020/12/14 12:17:59;;;;;;;26.23;14.60;;;2.90;90.50;;;;;;5055636;28;20176;-81
2020/12/14 12:20:29;;;;;;;22.33;14.93;;;3.00;90.50;;;;;;5036498;28;20236;-82
2020/12/14 12:22:58;;;;;;;21.87;14.20;;;2.90;90.50;;;;;;5049812;28;20203;-82
2020/12/14 12:25:28;;;;;;;26.40;14.97;;;3.00;90.50;;;;;;5029440;28;20257;-84
2020/12/14 12:27:57;;;;;;;26.70;15.57;;;2.90;90.50;;;;;;5052362;28;20426;-83
2020/12/14 12:30:25;;;;;;;24.50;15.53;;;2.90;90.60;;;;;;5055830;28;20198;-83
2020/12/14 12:32:55;;;;;;;27.30;15.53;;;3.00;90.60;;;;;;5055103;28;20411;-83
2020/12/14 12:35:25;;;;;;;23.43;15.33;;;3.00;90.70;;;;;;5053536;28;20210;-84
2020/12/14 12:37:54;;;;;;;28.67;16.00;;;3.00;90.70;;;;;;5052321;28;20183;-83
2020/12/14 12:40:26;;;;;;;24.20;14.70;;;2.90;90.60;;;;;;5054322;28;20266;-83
2020/12/14 12:42:54;;;;;;;24.43;15.10;;;2.90;90.60;;;;;;5051435;28;20260;-83
2020/12/14 12:45:23;;;;;;;24.90;15.07;;;2.90;90.60;;;;;;5055080;28;20203;-84
2020/12/14 12:47:51;;;;;;;25.07;15.07;;;2.90;90.50;;;;;;5046763;28;20212;-84
2020/12/14 12:50:19;;;;;;;29.27;16.93;;;3.00;90.50;;;;;;5035639;28;20562;-81
2020/12/14 12:52:47;;;;;;;26.43;15.77;;;3.00;90.50;;;;;;5036698;28;20656;-83
2020/12/14 12:55:17;;;;;;;27.20;15.27;;;2.90;90.60;;;;;;5037472;28;20275;-83
2020/12/14 12:57:45;;;;;;;24.30;15.77;;;2.90;90.70;;;;;;5046388;28;20526;-84
2020/12/14 13:00:13;;;;;;;26.03;15.90;;;3.00;90.70;;;;;;5032366;28;20528;-81
2020/12/14 13:02:41;;;;;;;26.10;15.43;;;3.00;90.80;;;;;;5029550;28;20198;-82
2020/12/14 13:05:10;;;;;;;26.90;16.17;;;2.90;90.70;;;;;;5045700;28;20206;-81